Halesite, New York
Current Conditions -  °F | °C
As of 7:53 PM on Tuesday 27 Jan 2015 (Local Time) from KFRG Reporting Station
Clear Clear  
Wind Chill:   Ceiling: Unl
Heat Index: 23°   Visibility: 10mi
Dew Point: 11°   Wind: 22mph
Humidity: 60%   Direction: 350°N
Pressure: 29.73"   Gusts: 33mph
Location:  40.8966°N, 73.4362°W
Report Text: KFRG 280053Z 35019G29KT 10SM CLR M05/M12 A2973 RMK AO2 PK WND 01029/0053 SLP067 T10501117 $
Loading
Personal Weather Stations






























Interactive Weather Map New forecast layout! Learn more

10-Day Weather Forecast

Advertisements
Track Severe Weather on mobile